Time;durP1;ratioP1;P1;durP2;ratioP2;P2;SDS_P1;SDS_P2;PMS_P1;PMS_P2;Temp;Humidity;BMP_temperature;BMP_pressure;BME280_temperature;BME280_humidity;BME280_pressure;Samples;Min_cycle;Max_cycle;Signal;HPM_P1;HPM_P2
2021/12/01 00:04:49;;;;;;;11.60;10.05;;;;;;;;;;12583022;28;20033;-74
2021/12/01 00:10:51;;;;;;;11.98;10.77;;;;;;;;;;12600555;28;20044;-74
2021/12/01 00:16:54;;;;;;;9.75;8.75;;;;;;;;;;12600255;28;20063;-74
2021/12/01 00:22:56;;;;;;;13.75;11.52;;;;;;;;;;12582357;28;20040;-74
2021/12/01 00:28:58;;;;;;;10.10;9.10;;;;;;;;;;12599747;28;20032;-74
2021/12/01 00:35:01;;;;;;;11.77;10.52;;;;;;;;;;12600481;28;20041;-74
2021/12/01 00:41:04;;;;;;;10.05;9.13;;;;;;;;;;12581362;28;20047;-74
2021/12/01 00:47:06;;;;;;;10.25;9.27;;;;;;;;;;12599185;28;20140;-74
2021/12/01 00:53:09;;;;;;;11.25;10.20;;;;;;;;;;12598882;28;20040;-74
2021/12/01 00:59:10;;;;;;;10.63;9.63;;;;;;;;;;12563801;28;20035;-74
2021/12/01 01:05:12;;;;;;;11.57;9.85;;;;;;;;;;12580301;28;20036;-74
2021/12/01 01:17:38;;;;;;;14.15;12.77;;;;;;;;;;12597929;28;20040;-74
2021/12/01 01:23:41;;;;;;;10.73;9.63;;;;;;;;;;12579213;28;20048;-74
2021/12/01 01:29:42;;;;;;;12.97;11.67;;;;;;;;;;12578978;28;20039;-74
2021/12/01 01:35:44;;;;;;;10.82;9.07;;;;;;;;;;12596399;28;20052;-74
2021/12/01 01:41:46;;;;;;;11.50;10.43;;;;;;;;;;12596122;28;20114;-74
2021/12/01 01:48:06;;;;;;;11.37;10.27;;;;;;;;;;12595928;28;20052;-74
2021/12/01 01:54:09;;;;;;;11.35;10.32;;;;;;;;;;12577688;28;20054;-74
2021/12/01 02:00:11;;;;;;;11.98;10.70;;;;;;;;;;12577613;28;20035;-74
2021/12/01 02:06:22;;;;;;;11.25;9.80;;;;;;;;;;12595347;28;20040;-74
2021/12/01 02:12:23;;;;;;;11.10;10.05;;;;;;;;;;12594820;28;20047;-74
2021/12/01 02:18:26;;;;;;;10.63;9.52;;;;;;;;;;12595570;28;20029;-74
2021/12/01 02:24:27;;;;;;;10.63;9.53;;;;;;;;;;12594144;28;20037;-74
2021/12/01 02:30:29;;;;;;;9.60;8.60;;;;;;;;;;12594390;28;20497;-74
2021/12/01 02:36:31;;;;;;;11.82;10.75;;;;;;;;;;12593995;28;20051;-74
2021/12/01 02:42:33;;;;;;;10.50;9.55;;;;;;;;;;12594026;28;20032;-74
2021/12/01 02:48:41;;;;;;;11.88;10.85;;;;;;;;;;12576012;28;20546;-74
2021/12/01 02:54:43;;;;;;;11.07;10.02;;;;;;;;;;12593358;28;20041;-74
2021/12/01 03:00:44;;;;;;;11.52;10.38;;;;;;;;;;12575893;28;20032;-74
2021/12/01 03:07:57;;;;;;;10.65;9.55;;;;;;;;;;12587409;28;20221;-72
2021/12/01 03:13:59;;;;;;;11.13;10.10;;;;;;;;;;12587135;28;20033;-72
2021/12/01 03:20:01;;;;;;;8.15;7.35;;;;;;;;;;12586891;28;20033;-72
2021/12/01 03:26:03;;;;;;;11.80;10.60;;;;;;;;;;12586449;28;20041;-75
2021/12/01 03:32:07;;;;;;;11.00;9.93;;;;;;;;;;12586151;28;20409;-74
2021/12/01 03:38:09;;;;;;;10.60;9.48;;;;;;;;;;12584792;28;20032;-74
2021/12/01 03:44:10;;;;;;;10.20;9.20;;;;;;;;;;12585542;28;20406;-73
2021/12/01 03:50:12;;;;;;;11.23;10.15;;;;;;;;;;12584185;28;20226;-74
2021/12/01 03:56:14;;;;;;;11.15;10.05;;;;;;;;;;12583923;28;20099;-74
2021/12/01 04:02:16;;;;;;;11.32;10.15;;;;;;;;;;12584333;28;20052;-74
2021/12/01 04:08:17;;;;;;;11.68;10.48;;;;;;;;;;12584207;28;20036;-74
2021/12/01 04:14:19;;;;;;;10.40;9.48;;;;;;;;;;12579173;28;20048;-74
2021/12/01 04:20:21;;;;;;;10.60;9.48;;;;;;;;;;12550006;28;20032;-74
2021/12/01 04:26:26;;;;;;;10.55;9.65;;;;;;;;;;12549615;28;20060;-74
2021/12/01 04:32:28;;;;;;;10.30;9.25;;;;;;;;;;12549362;28;20033;-74
2021/12/01 04:38:30;;;;;;;11.63;10.40;;;;;;;;;;12550315;28;20036;-75
2021/12/01 04:44:33;;;;;;;13.55;12.10;;;;;;;;;;12549918;28;20276;-75
2021/12/01 04:50:34;;;;;;;11.52;10.38;;;;;;;;;;12548474;28;20048;-74
2021/12/01 04:56:37;;;;;;;10.82;9.82;;;;;;;;;;12549425;28;20332;-74
2021/12/01 05:02:39;;;;;;;10.90;9.80;;;;;;;;;;12548806;28;20045;-74
2021/12/01 05:08:40;;;;;;;12.00;10.85;;;;;;;;;;12547576;28;20048;-74
2021/12/01 05:14:42;;;;;;;11.75;10.55;;;;;;;;;;12548592;28;20029;-75
2021/12/01 05:20:44;;;;;;;14.00;11.05;;;;;;;;;;12548083;28;20029;-74
2021/12/01 05:26:45;;;;;;;11.40;10.20;;;;;;;;;;12546914;28;20037;-74
2021/12/01 05:32:47;;;;;;;11.82;9.80;;;;;;;;;;12547436;28;20044;-74
2021/12/01 05:38:49;;;;;;;12.87;11.67;;;;;;;;;;12529545;28;20033;-74
2021/12/01 05:44:51;;;;;;;17.55;11.60;;;;;;;;;;12546909;28;20037;-74
2021/12/01 05:50:52;;;;;;;13.32;11.45;;;;;;;;;;12546913;28;20398;-74
2021/12/01 05:56:54;;;;;;;12.90;11.52;;;;;;;;;;12544965;28;20036;-74
2021/12/01 06:02:56;;;;;;;14.32;12.77;;;;;;;;;;12549921;28;20520;-75
2021/12/01 06:08:57;;;;;;;12.68;11.38;;;;;;;;;;12551980;28;20044;-74
2021/12/01 06:15:00;;;;;;;13.13;11.93;;;;;;;;;;12549775;28;20036;-74
2021/12/01 06:21:02;;;;;;;14.00;12.60;;;;;;;;;;12544198;28;20040;-73
2021/12/01 06:27:05;;;;;;;12.70;11.40;;;;;;;;;;12527405;28;20299;-74
2021/12/01 06:33:07;;;;;;;12.45;11.35;;;;;;;;;;12526488;28;20475;-74
2021/12/01 06:39:09;;;;;;;13.40;11.80;;;;;;;;;;12541142;28;20048;-74
2021/12/01 06:45:12;;;;;;;11.80;10.70;;;;;;;;;;12541391;28;20045;-74
2021/12/01 06:51:13;;;;;;;13.97;12.67;;;;;;;;;;12501917;28;20276;-74
2021/12/01 06:57:15;;;;;;;23.88;21.48;;;;;;;;;;12518944;28;20314;-74
2021/12/01 07:03:17;;;;;;;15.98;14.30;;;;;;;;;;12509942;28;20053;-74
2021/12/01 07:09:20;;;;;;;20.15;16.30;;;;;;;;;;12509966;28;20032;-73
2021/12/01 07:15:22;;;;;;;16.05;14.00;;;;;;;;;;12513086;28;20176;-73
2021/12/01 07:21:24;;;;;;;20.48;18.50;;;;;;;;;;12518497;28;20025;-73
2021/12/01 07:27:26;;;;;;;21.30;18.88;;;;;;;;;;12507504;28;20507;-73
2021/12/01 07:33:27;;;;;;;15.65;14.00;;;;;;;;;;12509675;28;20075;-73
2021/12/01 07:39:29;;;;;;;19.20;17.40;;;;;;;;;;12487212;28;20033;-73
2021/12/01 07:45:31;;;;;;;22.20;19.88;;;;;;;;;;12501189;28;20037;-73
2021/12/01 07:51:33;;;;;;;21.90;19.70;;;;;;;;;;12509109;28;20037;-73
2021/12/01 07:57:35;;;;;;;22.50;20.15;;;;;;;;;;12521213;28;20036;-75
2021/12/01 08:03:37;;;;;;;20.30;18.20;;;;;;;;;;12514306;28;20053;-73
2021/12/01 08:09:39;;;;;;;15.82;14.23;;;;;;;;;;12510242;28;20486;-73
2021/12/01 08:15:41;;;;;;;11.93;10.73;;;;;;;;;;12522440;28;20475;-73
2021/12/01 08:21:46;;;;;;;12.10;10.95;;;;;;;;;;12506330;28;20044;-74
2021/12/01 08:27:48;;;;;;;14.70;13.20;;;;;;;;;;12487419;28;20510;-73
2021/12/01 08:33:50;;;;;;;10.70;9.70;;;;;;;;;;12505578;28;20033;-74
2021/12/01 08:39:53;;;;;;;9.52;8.55;;;;;;;;;;12506370;28;20759;-73
2021/12/01 08:45:55;;;;;;;11.73;10.63;;;;;;;;;;12496947;28;20041;-74
2021/12/01 08:51:56;;;;;;;11.27;10.05;;;;;;;;;;12514694;28;20032;-74
2021/12/01 08:57:58;;;;;;;10.60;9.50;;;;;;;;;;12508842;28;20048;-74
2021/12/01 09:04:01;;;;;;;9.10;8.20;;;;;;;;;;12514436;28;20486;-74
2021/12/01 09:10:04;;;;;;;11.18;9.98;;;;;;;;;;12514985;28;20414;-74
2021/12/01 09:16:06;;;;;;;15.85;14.43;;;;;;;;;;12503985;28;20502;-75
2021/12/01 09:22:08;;;;;;;10.23;9.23;;;;;;;;;;12509916;28;20039;-74
2021/12/01 09:28:10;;;;;;;9.32;8.32;;;;;;;;;;12514517;28;20033;-73
2021/12/01 09:34:11;;;;;;;6.38;5.78;;;;;;;;;;12514863;28;20044;-74
2021/12/01 09:40:17;;;;;;;7.10;6.50;;;;;;;;;;12525971;28;20037;-74
2021/12/01 09:46:19;;;;;;;9.35;8.45;;;;;;;;;;12514730;28;20060;-74
2021/12/01 09:52:21;;;;;;;9.15;8.25;;;;;;;;;;12512115;28;20013;-74
2021/12/01 09:58:24;;;;;;;10.45;9.45;;;;;;;;;;12514368;28;20037;-74
2021/12/01 10:04:28;;;;;;;;;;;;;;;;;;12518686;28;20061;-74
2021/12/01 10:10:35;;;;;;;10.48;8.82;;;;;;;;;;12519494;28;19909;-75
2021/12/01 10:16:39;;;;;;;9.43;8.20;;;;;;;;;;12512412;28;20033;-75
2021/12/01 10:23:00;;;;;;;8.15;7.35;;;;;;;;;;12510328;28;20467;-74
2021/12/01 10:29:06;;;;;;;10.63;8.43;;;;;;;;;;12508497;28;20033;-73
2021/12/01 10:35:08;;;;;;;10.65;9.65;;;;;;;;;;12507297;28;20025;-74
2021/12/01 10:41:12;;;;;;;8.57;7.78;;;;;;;;;;12521932;28;20036;-74
2021/12/01 10:47:14;;;;;;;8.35;7.32;;;;;;;;;;12515919;28;20053;-74
2021/12/01 10:53:21;;;;;;;5.82;5.22;;;;;;;;;;12523251;28;20032;-74
2021/12/01 10:59:22;;;;;;;8.60;7.15;;;;;;;;;;12519911;28;20363;-73
2021/12/01 11:05:27;;;;;;;9.13;7.43;;;;;;;;;;12516156;28;20135;-73
2021/12/01 11:11:38;;;;;;;7.93;7.15;;;;;;;;;;12511541;28;20021;-73
2021/12/01 11:17:40;;;;;;;8.75;7.72;;;;;;;;;;12508593;28;20033;-74
2021/12/01 11:23:43;;;;;;;7.70;7.00;;;;;;;;;;12504160;28;20517;-73
2021/12/01 11:29:45;;;;;;;8.02;6.88;;;;;;;;;;12522544;28;20021;-76
2021/12/01 11:35:54;;;;;;;10.60;9.55;;;;;;;;;;12524253;28;20037;-76
2021/12/01 11:41:56;;;;;;;7.85;7.13;;;;;;;;;;12513059;28;20033;-74
2021/12/01 11:47:58;;;;;;;5.47;4.68;;;;;;;;;;12501659;28;20045;-77
2021/12/01 11:54:11;;;;;;;4.95;4.45;;;;;;;;;;12524242;28;20371;-73
2021/12/01 12:00:13;;;;;;;5.45;4.95;;;;;;;;;;12525388;28;20036;-73
2021/12/01 12:06:36;;;;;;;5.90;5.30;;;;;;;;;;12526717;28;20071;-73
2021/12/01 12:13:00;;;;;;;7.60;6.10;;;;;;;;;;12500054;28;20033;-74
2021/12/01 12:19:03;;;;;;;6.05;5.53;;;;;;;;;;12519299;28;20033;-74
2021/12/01 12:25:10;;;;;;;3.95;3.65;;;;;;;;;;12508166;28;20065;-73
2021/12/01 12:31:22;;;;;;;5.70;5.20;;;;;;;;;;12499104;28;20037;-73
2021/12/01 12:37:25;;;;;;;3.95;3.65;;;;;;;;;;12498129;28;20033;-73
2021/12/01 12:43:29;;;;;;;4.53;4.20;;;;;;;;;;12499181;28;20052;-73
2021/12/01 12:49:42;;;;;;;4.80;3.15;;;;;;;;;;12500252;28;20493;-74
2021/12/01 12:55:43;;;;;;;3.53;3.10;;;;;;;;;;12498438;28;20073;-73
2021/12/01 13:01:46;;;;;;;3.28;3.03;;;;;;;;;;12516450;28;20417;-73
2021/12/01 13:07:48;;;;;;;3.70;3.40;;;;;;;;;;12534642;28;20413;-73
2021/12/01 13:13:54;;;;;;;2.53;2.33;;;;;;;;;;12529576;28;20044;-73
2021/12/01 13:20:00;;;;;;;4.18;3.88;;;;;;;;;;12520941;28;20039;-74
2021/12/01 13:26:05;;;;;;;5.75;5.15;;;;;;;;;;12509720;28;20037;-74
2021/12/01 13:32:06;;;;;;;5.15;4.75;;;;;;;;;;12497845;28;20033;-74
2021/12/01 13:38:08;;;;;;;4.70;4.40;;;;;;;;;;12497837;28;20041;-74
2021/12/01 13:44:11;;;;;;;4.93;4.53;;;;;;;;;;12522910;28;20032;-74
2021/12/01 13:50:14;;;;;;;4.57;4.18;;;;;;;;;;12521725;28;20430;-74
2021/12/01 13:56:18;;;;;;;6.53;5.65;;;;;;;;;;12497171;28;20390;-74
2021/12/01 14:02:27;;;;;;;6.63;5.65;;;;;;;;;;12496735;28;20061;-74
2021/12/01 14:08:28;;;;;;;4.30;3.90;;;;;;;;;;12495834;28;20049;-74
2021/12/01 14:14:30;;;;;;;6.75;6.07;;;;;;;;;;12495864;28;20048;-73
2021/12/01 14:20:32;;;;;;;8.05;6.97;;;;;;;;;;12495037;28;20032;-73
2021/12/01 14:26:39;;;;;;;7.47;6.88;;;;;;;;;;12477971;28;20053;-73
2021/12/01 14:32:41;;;;;;;6.00;5.50;;;;;;;;;;12495860;28;20382;-73
2021/12/01 14:38:50;;;;;;;8.45;7.47;;;;;;;;;;12495256;28;20033;-73
2021/12/01 14:45:02;;;;;;;8.32;6.65;;;;;;;;;;12493751;28;20042;-74
2021/12/01 14:51:04;;;;;;;12.60;9.77;;;;;;;;;;12495148;28;20117;-73
2021/12/01 14:57:06;;;;;;;16.53;12.97;;;;;;;;;;12494624;28;20390;-73
2021/12/01 15:03:12;;;;;;;14.18;12.82;;;;;;;;;;12492702;28;20080;-74
2021/12/01 15:09:14;;;;;;;14.63;13.02;;;;;;;;;;12493187;28;20029;-74
2021/12/01 15:15:32;;;;;;;9.20;7.93;;;;;;;;;;12493595;28;20029;-74
2021/12/01 15:21:34;;;;;;;6.60;6.00;;;;;;;;;;12494220;28;20041;-74
2021/12/01 15:27:35;;;;;;;7.90;7.20;;;;;;;;;;12493743;28;20041;-74
2021/12/01 15:33:39;;;;;;;7.30;6.57;;;;;;;;;;12494204;28;20390;-74
2021/12/01 15:39:41;;;;;;;13.25;11.88;;;;;;;;;;12492621;28;20037;-74
2021/12/01 15:45:43;;;;;;;13.20;11.93;;;;;;;;;;12492017;28;20048;-74
2021/12/01 15:51:45;;;;;;;13.20;11.10;;;;;;;;;;12493097;28;20033;-74
2021/12/01 15:57:46;;;;;;;9.50;8.43;;;;;;;;;;12491634;28;20029;-74
2021/12/01 16:03:48;;;;;;;6.47;5.90;;;;;;;;;;12491314;28;20053;-74
2021/12/01 16:09:50;;;;;;;6.43;5.70;;;;;;;;;;12492955;28;20021;-74
2021/12/01 16:15:52;;;;;;;6.93;6.22;;;;;;;;;;12501858;28;20366;-74
2021/12/01 16:21:54;;;;;;;;;;;;;;;;;;12500621;28;20037;-74
2021/12/01 16:27:56;;;;;;;5.32;4.82;;;;;;;;;;12499885;28;19924;-74
2021/12/01 16:33:58;;;;;;;5.93;5.38;;;;;;;;;;12499872;28;20037;-74
2021/12/01 16:40:01;;;;;;;4.38;3.97;;;;;;;;;;12500572;28;20033;-74
2021/12/01 16:46:02;;;;;;;;;;;;;;;;;;12499387;28;20038;-76
2021/12/01 16:52:04;;;;;;;5.75;5.15;;;;;;;;;;12500749;28;19916;-77
2021/12/01 16:58:06;;;;;;;7.38;6.68;;;;;;;;;;12500151;28;20025;-85
2021/12/01 17:04:09;;;;;;;6.63;5.93;;;;;;;;;;12499593;28;20088;-75
2021/12/01 17:10:11;;;;;;;6.63;5.93;;;;;;;;;;12497784;28;20299;-75
2021/12/01 17:16:15;;;;;;;7.77;7.00;;;;;;;;;;12498738;28;20040;-78
2021/12/01 17:22:16;;;;;;;6.50;5.90;;;;;;;;;;12498606;28;20033;-76
2021/12/01 17:28:21;;;;;;;5.10;4.65;;;;;;;;;;12498096;28;20038;-77
2021/12/01 17:34:22;;;;;;;5.85;5.25;;;;;;;;;;12497418;28;20041;-78
2021/12/01 17:40:25;;;;;;;5.53;5.03;;;;;;;;;;12480003;28;20038;-77
2021/12/01 17:46:26;;;;;;;6.73;6.07;;;;;;;;;;12497523;28;20041;-78
2021/12/01 17:52:28;;;;;;;6.85;6.25;;;;;;;;;;12479602;28;20034;-77
2021/12/01 17:58:30;;;;;;;8.40;7.50;;;;;;;;;;12495430;28;20029;-76
2021/12/01 18:04:33;;;;;;;11.00;10.02;;;;;;;;;;12478890;28;20061;-75
2021/12/01 18:10:41;;;;;;;11.55;9.70;;;;;;;;;;12496619;28;20390;-75
2021/12/01 18:16:43;;;;;;;11.15;9.25;;;;;;;;;;12478341;28;20056;-77
2021/12/01 18:22:45;;;;;;;11.02;9.93;;;;;;;;;;12495746;28;20487;-74
2021/12/01 18:28:47;;;;;;;14.23;12.73;;;;;;;;;;12495746;28;20056;-73
2021/12/01 18:34:49;;;;;;;10.95;9.85;;;;;;;;;;12496144;28;20033;-74
2021/12/01 18:40:51;;;;;;;10.27;9.15;;;;;;;;;;12495386;28;20037;-74
2021/12/01 18:46:52;;;;;;;7.95;7.18;;;;;;;;;;12493750;28;20042;-73
2021/12/01 18:52:54;;;;;;;15.38;12.02;;;;;;;;;;12494616;28;20139;-73
2021/12/01 18:58:56;;;;;;;12.30;10.63;;;;;;;;;;12493363;28;20033;-73
2021/12/01 19:04:58;;;;;;;12.35;11.05;;;;;;;;;;12494065;28;20068;-73
2021/12/01 19:11:00;;;;;;;9.10;7.85;;;;;;;;;;12476600;28;20067;-73
2021/12/01 19:17:01;;;;;;;9.52;7.40;;;;;;;;;;12493985;28;20045;-73
2021/12/01 19:23:04;;;;;;;7.47;6.72;;;;;;;;;;12493824;28;20040;-73
2021/12/01 19:29:06;;;;;;;8.13;6.70;;;;;;;;;;12492076;28;20486;-73
2021/12/01 19:35:08;;;;;;;9.65;8.65;;;;;;;;;;12493224;28;20041;-73
2021/12/01 19:41:10;;;;;;;9.95;8.95;;;;;;;;;;12493601;28;20482;-73
2021/12/01 19:47:12;;;;;;;15.40;13.80;;;;;;;;;;12496956;28;20036;-73
2021/12/01 19:53:14;;;;;;;10.15;8.68;;;;;;;;;;12501338;28;20470;-72
2021/12/01 19:59:15;;;;;;;10.68;9.57;;;;;;;;;;12501292;28;20040;-72
2021/12/01 20:05:17;;;;;;;8.90;7.63;;;;;;;;;;12501217;28;20064;-72
2021/12/01 20:11:19;;;;;;;13.57;11.30;;;;;;;;;;12500765;28;20037;-74
2021/12/01 20:17:20;;;;;;;12.10;10.90;;;;;;;;;;12500664;28;20494;-73
2021/12/01 20:23:22;;;;;;;10.88;9.80;;;;;;;;;;12500083;28;20033;-75
2021/12/01 20:29:24;;;;;;;9.48;8.40;;;;;;;;;;12483607;28;20052;-72
2021/12/01 20:35:29;;;;;;;13.25;11.43;;;;;;;;;;12500222;28;20068;-74
2021/12/01 20:41:32;;;;;;;18.35;16.35;;;;;;;;;;12500531;28;20037;-75
2021/12/01 21:06:18;;;;;;;21.80;18.58;;;;;;;;;;12499385;28;20060;-73
2021/12/01 21:12:22;;;;;;;29.50;25.73;;;;;;;;;;12498510;28;20041;-73
2021/12/01 21:18:24;;;;;;;32.38;26.38;;;;;;;;;;12497904;28;20029;-74
2021/12/01 21:24:33;;;;;;;25.80;21.20;;;;;;;;;;12497475;28;20371;-74
2021/12/01 21:30:35;;;;;;;15.52;13.88;;;;;;;;;;12498639;28;20056;-73
2021/12/01 21:36:37;;;;;;;16.20;13.00;;;;;;;;;;12497914;28;20037;-73
2021/12/01 21:42:39;;;;;;;14.43;12.60;;;;;;;;;;12497829;28;20037;-73
2021/12/01 21:48:41;;;;;;;10.85;9.75;;;;;;;;;;12497382;28;20049;-74
2021/12/01 21:54:43;;;;;;;11.15;9.02;;;;;;;;;;12495876;28;20037;-74
2021/12/01 22:00:45;;;;;;;9.73;8.73;;;;;;;;;;12495620;28;20041;-73
2021/12/01 22:06:47;;;;;;;9.30;8.32;;;;;;;;;;12496392;28;20053;-74
2021/12/01 22:12:52;;;;;;;11.07;10.00;;;;;;;;;;12495936;28;20041;-74
2021/12/01 22:18:56;;;;;;;9.05;8.18;;;;;;;;;;12495740;28;20036;-74
2021/12/01 22:24:58;;;;;;;12.40;11.13;;;;;;;;;;12495772;28;20048;-73
2021/12/01 22:31:00;;;;;;;13.52;12.10;;;;;;;;;;12495790;28;20033;-74
2021/12/01 22:37:02;;;;;;;12.13;10.43;;;;;;;;;;12496443;28;20041;-73
2021/12/01 22:43:04;;;;;;;11.10;10.02;;;;;;;;;;12495292;28;20033;-73
2021/12/01 22:49:06;;;;;;;16.90;14.95;;;;;;;;;;12494931;28;20056;-74
2021/12/01 22:55:08;;;;;;;14.27;12.77;;;;;;;;;;12493810;28;20386;-73
2021/12/01 23:01:10;;;;;;;10.85;9.82;;;;;;;;;;12477252;28;20044;-73
2021/12/01 23:07:15;;;;;;;9.68;8.68;;;;;;;;;;12494344;28;20049;-73
2021/12/01 23:13:18;;;;;;;18.17;16.33;;;;;;;;;;12494239;28;20037;-73
2021/12/01 23:19:19;;;;;;;14.15;12.75;;;;;;;;;;12495339;28;20040;-74
2021/12/01 23:31:42;;;;;;;12.68;11.38;;;;;;;;;;12504061;28;20038;-73
2021/12/01 23:37:44;;;;;;;18.10;16.10;;;;;;;;;;12505158;28;20386;-73
2021/12/01 23:43:48;;;;;;;17.70;15.80;;;;;;;;;;12503251;28;20040;-73
2021/12/01 23:56:10;;;;;;;16.17;14.43;;;;;;;;;;12503172;28;20037;-73
